sensor_id;sensor_type;location;lat;lon;timestamp;P1;durP1;ratioP1;P2;durP2;ratioP2
51184;SDS011;37248;59.350;18.050;2023-02-08T00:00:23;4.20;;;1.63;;
51184;SDS011;37248;59.350;18.050;2023-02-08T00:02:48;3.45;;;1.40;;
51184;SDS011;37248;59.350;18.050;2023-02-08T00:05:14;3.20;;;1.30;;
51184;SDS011;37248;59.350;18.050;2023-02-08T00:07:39;3.00;;;1.40;;
51184;SDS011;37248;59.350;18.050;2023-02-08T00:10:04;5.32;;;1.50;;
51184;SDS011;37248;59.350;18.050;2023-02-08T00:12:31;2.50;;;1.38;;
51184;SDS011;37248;59.350;18.050;2023-02-08T00:14:56;3.78;;;1.40;;
51184;SDS011;37248;59.350;18.050;2023-02-08T00:17:22;3.37;;;1.43;;
51184;SDS011;37248;59.350;18.050;2023-02-08T00:19:47;4.70;;;1.30;;
51184;SDS011;37248;59.350;18.050;2023-02-08T00:22:12;5.87;;;1.60;;
51184;SDS011;37248;59.350;18.050;2023-02-08T00:24:37;3.07;;;1.30;;
51184;SDS011;37248;59.350;18.050;2023-02-08T00:27:03;5.43;;;1.33;;
51184;SDS011;37248;59.350;18.050;2023-02-08T00:29:28;3.93;;;1.23;;
51184;SDS011;37248;59.350;18.050;2023-02-08T00:31:53;4.97;;;1.20;;
51184;SDS011;37248;59.350;18.050;2023-02-08T00:34:18;4.03;;;1.40;;
51184;SDS011;37248;59.350;18.050;2023-02-08T00:36:44;5.57;;;1.20;;
51184;SDS011;37248;59.350;18.050;2023-02-08T00:39:09;3.53;;;1.17;;
51184;SDS011;37248;59.350;18.050;2023-02-08T00:41:34;3.03;;;1.30;;
51184;SDS011;37248;59.350;18.050;2023-02-08T00:43:59;5.00;;;1.30;;
51184;SDS011;37248;59.350;18.050;2023-02-08T00:46:25;3.97;;;1.60;;
51184;SDS011;37248;59.350;18.050;2023-02-08T00:48:50;5.00;;;1.40;;
51184;SDS011;37248;59.350;18.050;2023-02-08T00:51:15;7.80;;;1.10;;
51184;SDS011;37248;59.350;18.050;2023-02-08T00:53:42;3.27;;;1.13;;
51184;SDS011;37248;59.350;18.050;2023-02-08T00:56:08;2.10;;;1.23;;
51184;SDS011;37248;59.350;18.050;2023-02-08T00:58:34;5.43;;;1.20;;
51184;SDS011;37248;59.350;18.050;2023-02-08T01:00:59;4.17;;;1.30;;
51184;SDS011;37248;59.350;18.050;2023-02-08T01:03:25;4.27;;;1.30;;
51184;SDS011;37248;59.350;18.050;2023-02-08T01:05:50;4.18;;;1.50;;
51184;SDS011;37248;59.350;18.050;2023-02-08T01:08:16;5.72;;;1.27;;
51184;SDS011;37248;59.350;18.050;2023-02-08T01:10:43;6.00;;;1.57;;
51184;SDS011;37248;59.350;18.050;2023-02-08T01:13:08;10.20;;;1.40;;
51184;SDS011;37248;59.350;18.050;2023-02-08T01:15:34;6.43;;;1.30;;
51184;SDS011;37248;59.350;18.050;2023-02-08T01:17:59;8.60;;;1.20;;
51184;SDS011;37248;59.350;18.050;2023-02-08T01:20:24;4.50;;;1.55;;
51184;SDS011;37248;59.350;18.050;2023-02-08T01:22:50;3.90;;;1.40;;
51184;SDS011;37248;59.350;18.050;2023-02-08T01:25:15;5.30;;;1.27;;
51184;SDS011;37248;59.350;18.050;2023-02-08T01:27:40;5.23;;;1.30;;
51184;SDS011;37248;59.350;18.050;2023-02-08T01:30:06;5.47;;;1.20;;
51184;SDS011;37248;59.350;18.050;2023-02-08T01:32:31;12.82;;;1.33;;
51184;SDS011;37248;59.350;18.050;2023-02-08T01:34:57;5.73;;;1.20;;
51184;SDS011;37248;59.350;18.050;2023-02-08T01:37:22;12.30;;;1.70;;
51184;SDS011;37248;59.350;18.050;2023-02-08T01:39:47;6.33;;;1.33;;
51184;SDS011;37248;59.350;18.050;2023-02-08T01:42:13;7.35;;;1.80;;
51184;SDS011;37248;59.350;18.050;2023-02-08T01:47:22;5.97;;;1.23;;
51184;SDS011;37248;59.350;18.050;2023-02-08T01:49:47;5.27;;;1.50;;
51184;SDS011;37248;59.350;18.050;2023-02-08T01:52:14;10.83;;;1.30;;
51184;SDS011;37248;59.350;18.050;2023-02-08T01:55:01;5.72;;;1.02;;
51184;SDS011;37248;59.350;18.050;2023-02-08T01:57:27;5.40;;;1.20;;
51184;SDS011;37248;59.350;18.050;2023-02-08T01:59:55;8.50;;;1.80;;
51184;SDS011;37248;59.350;18.050;2023-02-08T02:02:21;3.78;;;1.00;;
51184;SDS011;37248;59.350;18.050;2023-02-08T02:04:47;5.82;;;1.27;;
51184;SDS011;37248;59.350;18.050;2023-02-08T02:07:13;5.10;;;1.10;;
51184;SDS011;37248;59.350;18.050;2023-02-08T02:09:55;4.35;;;1.42;;
51184;SDS011;37248;59.350;18.050;2023-02-08T02:12:21;4.30;;;1.10;;
51184;SDS011;37248;59.350;18.050;2023-02-08T02:14:46;3.80;;;1.10;;
51184;SDS011;37248;59.350;18.050;2023-02-08T02:17:12;4.03;;;1.20;;
51184;SDS011;37248;59.350;18.050;2023-02-08T02:19:42;4.28;;;1.10;;
51184;SDS011;37248;59.350;18.050;2023-02-08T02:43:30;4.07;;;1.17;;
51184;SDS011;37248;59.350;18.050;2023-02-08T02:48:37;4.80;;;1.20;;
51184;SDS011;37248;59.350;18.050;2023-02-08T02:51:21;11.77;;;1.40;;
51184;SDS011;37248;59.350;18.050;2023-02-08T02:56:18;4.13;;;1.50;;
51184;SDS011;37248;59.350;18.050;2023-02-08T02:58:45;7.57;;;1.35;;
51184;SDS011;37248;59.350;18.050;2023-02-08T03:01:11;7.13;;;1.48;;
51184;SDS011;37248;59.350;18.050;2023-02-08T03:03:37;5.50;;;1.20;;
51184;SDS011;37248;59.350;18.050;2023-02-08T03:06:04;4.10;;;1.10;;
51184;SDS011;37248;59.350;18.050;2023-02-08T03:11:17;4.22;;;1.13;;
51184;SDS011;37248;59.350;18.050;2023-02-08T03:13:53;4.68;;;1.15;;
51184;SDS011;37248;59.350;18.050;2023-02-08T03:18:58;9.60;;;1.20;;
51184;SDS011;37248;59.350;18.050;2023-02-08T03:24:23;9.80;;;1.60;;
51184;SDS011;37248;59.350;18.050;2023-02-08T03:31:52;4.25;;;0.90;;
51184;SDS011;37248;59.350;18.050;2023-02-08T03:34:27;4.32;;;1.27;;
51184;SDS011;37248;59.350;18.050;2023-02-08T03:36:57;3.00;;;1.00;;
51184;SDS011;37248;59.350;18.050;2023-02-08T03:39:26;3.35;;;0.90;;
51184;SDS011;37248;59.350;18.050;2023-02-08T03:41:53;4.05;;;1.08;;
51184;SDS011;37248;59.350;18.050;2023-02-08T03:46:58;4.90;;;1.17;;
51184;SDS011;37248;59.350;18.050;2023-02-08T03:49:27;9.30;;;1.50;;
51184;SDS011;37248;59.350;18.050;2023-02-08T03:51:54;6.90;;;1.15;;
51184;SDS011;37248;59.350;18.050;2023-02-08T03:54:22;3.22;;;0.95;;
51184;SDS011;37248;59.350;18.050;2023-02-08T03:56:53;4.32;;;1.17;;
51184;SDS011;37248;59.350;18.050;2023-02-08T03:59:24;5.78;;;1.30;;
51184;SDS011;37248;59.350;18.050;2023-02-08T04:01:53;5.50;;;1.40;;
51184;SDS011;37248;59.350;18.050;2023-02-08T04:04:20;5.38;;;1.15;;
51184;SDS011;37248;59.350;18.050;2023-02-08T04:06:46;3.55;;;1.10;;
51184;SDS011;37248;59.350;18.050;2023-02-08T04:09:11;5.47;;;1.20;;
51184;SDS011;37248;59.350;18.050;2023-02-08T04:11:37;4.80;;;1.10;;
51184;SDS011;37248;59.350;18.050;2023-02-08T04:14:02;4.10;;;1.10;;
51184;SDS011;37248;59.350;18.050;2023-02-08T04:16:27;5.47;;;1.20;;
51184;SDS011;37248;59.350;18.050;2023-02-08T04:18:52;4.73;;;1.27;;
51184;SDS011;37248;59.350;18.050;2023-02-08T04:21:18;4.83;;;1.10;;
51184;SDS011;37248;59.350;18.050;2023-02-08T04:23:43;5.53;;;1.10;;
51184;SDS011;37248;59.350;18.050;2023-02-08T04:26:08;3.30;;;1.07;;
51184;SDS011;37248;59.350;18.050;2023-02-08T04:28:33;3.77;;;1.20;;
51184;SDS011;37248;59.350;18.050;2023-02-08T04:30:59;4.07;;;1.10;;
51184;SDS011;37248;59.350;18.050;2023-02-08T04:33:24;4.90;;;1.20;;
51184;SDS011;37248;59.350;18.050;2023-02-08T04:35:49;4.00;;;1.00;;
51184;SDS011;37248;59.350;18.050;2023-02-08T04:38:14;4.03;;;1.00;;
51184;SDS011;37248;59.350;18.050;2023-02-08T04:40:40;3.13;;;0.90;;
51184;SDS011;37248;59.350;18.050;2023-02-08T04:43:05;2.28;;;0.90;;
51184;SDS011;37248;59.350;18.050;2023-02-08T04:45:30;2.93;;;1.23;;
51184;SDS011;37248;59.350;18.050;2023-02-08T04:47:57;3.60;;;0.90;;
51184;SDS011;37248;59.350;18.050;2023-02-08T04:50:22;4.93;;;1.17;;
51184;SDS011;37248;59.350;18.050;2023-02-08T04:52:47;4.13;;;1.17;;
51184;SDS011;37248;59.350;18.050;2023-02-08T04:55:13;4.63;;;1.10;;
51184;SDS011;37248;59.350;18.050;2023-02-08T04:57:38;5.63;;;1.20;;
51184;SDS011;37248;59.350;18.050;2023-02-08T05:00:03;3.28;;;1.00;;
51184;SDS011;37248;59.350;18.050;2023-02-08T05:02:29;2.77;;;1.20;;
51184;SDS011;37248;59.350;18.050;2023-02-08T05:04:54;3.60;;;1.10;;
51184;SDS011;37248;59.350;18.050;2023-02-08T05:07:19;4.80;;;1.20;;
51184;SDS011;37248;59.350;18.050;2023-02-08T05:09:44;3.47;;;1.20;;
51184;SDS011;37248;59.350;18.050;2023-02-08T05:12:10;3.27;;;1.07;;
51184;SDS011;37248;59.350;18.050;2023-02-08T05:14:35;3.40;;;1.30;;
51184;SDS011;37248;59.350;18.050;2023-02-08T05:17:01;2.35;;;1.00;;
51184;SDS011;37248;59.350;18.050;2023-02-08T05:19:26;2.83;;;1.10;;
51184;SDS011;37248;59.350;18.050;2023-02-08T05:21:51;2.50;;;1.30;;
51184;SDS011;37248;59.350;18.050;2023-02-08T05:24:16;4.40;;;1.40;;
51184;SDS011;37248;59.350;18.050;2023-02-08T05:26:42;2.83;;;1.20;;
51184;SDS011;37248;59.350;18.050;2023-02-08T05:29:07;3.07;;;1.17;;
51184;SDS011;37248;59.350;18.050;2023-02-08T05:31:32;2.80;;;1.10;;
51184;SDS011;37248;59.350;18.050;2023-02-08T05:33:57;4.37;;;1.20;;
51184;SDS011;37248;59.350;18.050;2023-02-08T05:36:23;2.33;;;1.30;;
51184;SDS011;37248;59.350;18.050;2023-02-08T05:38:48;8.47;;;1.70;;
51184;SDS011;37248;59.350;18.050;2023-02-08T05:41:14;10.63;;;2.27;;
51184;SDS011;37248;59.350;18.050;2023-02-08T05:43:39;5.47;;;1.30;;
51184;SDS011;37248;59.350;18.050;2023-02-08T05:46:05;4.68;;;1.40;;
51184;SDS011;37248;59.350;18.050;2023-02-08T05:48:31;4.80;;;1.48;;
51184;SDS011;37248;59.350;18.050;2023-02-08T05:50:56;4.13;;;1.35;;
51184;SDS011;37248;59.350;18.050;2023-02-08T05:53:22;4.63;;;1.30;;
51184;SDS011;37248;59.350;18.050;2023-02-08T05:55:47;7.77;;;1.50;;
51184;SDS011;37248;59.350;18.050;2023-02-08T05:58:12;4.53;;;0.90;;
51184;SDS011;37248;59.350;18.050;2023-02-08T06:00:38;5.67;;;1.70;;
51184;SDS011;37248;59.350;18.050;2023-02-08T06:03:04;5.15;;;1.50;;
51184;SDS011;37248;59.350;18.050;2023-02-08T06:05:29;3.53;;;1.50;;
51184;SDS011;37248;59.350;18.050;2023-02-08T06:07:54;6.20;;;1.37;;
51184;SDS011;37248;59.350;18.050;2023-02-08T06:10:20;3.60;;;1.53;;
51184;SDS011;37248;59.350;18.050;2023-02-08T06:12:45;4.13;;;1.60;;
51184;SDS011;37248;59.350;18.050;2023-02-08T06:15:10;4.47;;;1.80;;
51184;SDS011;37248;59.350;18.050;2023-02-08T06:17:35;9.90;;;2.40;;
51184;SDS011;37248;59.350;18.050;2023-02-08T06:20:01;6.27;;;2.00;;
51184;SDS011;37248;59.350;18.050;2023-02-08T06:22:26;7.70;;;2.20;;
51184;SDS011;37248;59.350;18.050;2023-02-08T06:24:51;4.33;;;1.80;;
51184;SDS011;37248;59.350;18.050;2023-02-08T06:27:16;6.20;;;2.20;;
51184;SDS011;37248;59.350;18.050;2023-02-08T06:29:42;15.07;;;3.17;;
51184;SDS011;37248;59.350;18.050;2023-02-08T06:32:07;8.17;;;2.20;;
51184;SDS011;37248;59.350;18.050;2023-02-08T06:34:32;7.17;;;2.80;;
51184;SDS011;37248;59.350;18.050;2023-02-08T06:36:57;7.13;;;2.70;;
51184;SDS011;37248;59.350;18.050;2023-02-08T06:39:26;7.85;;;2.88;;
51184;SDS011;37248;59.350;18.050;2023-02-08T06:41:51;9.20;;;2.67;;
51184;SDS011;37248;59.350;18.050;2023-02-08T06:44:16;9.87;;;2.67;;
51184;SDS011;37248;59.350;18.050;2023-02-08T06:46:42;9.38;;;2.67;;
51184;SDS011;37248;59.350;18.050;2023-02-08T06:49:07;13.07;;;3.33;;
51184;SDS011;37248;59.350;18.050;2023-02-08T06:51:32;10.88;;;3.20;;
51184;SDS011;37248;59.350;18.050;2023-02-08T06:53:57;10.27;;;2.67;;
51184;SDS011;37248;59.350;18.050;2023-02-08T06:56:23;24.15;;;2.67;;
51184;SDS011;37248;59.350;18.050;2023-02-08T06:58:48;20.77;;;4.30;;
51184;SDS011;37248;59.350;18.050;2023-02-08T07:01:13;23.03;;;5.50;;
51184;SDS011;37248;59.350;18.050;2023-02-08T07:03:39;33.00;;;5.30;;
51184;SDS011;37248;59.350;18.050;2023-02-08T07:06:04;28.08;;;5.10;;
51184;SDS011;37248;59.350;18.050;2023-02-08T07:08:29;27.40;;;4.83;;
51184;SDS011;37248;59.350;18.050;2023-02-08T07:10:55;24.67;;;5.20;;
51184;SDS011;37248;59.350;18.050;2023-02-08T07:13:20;27.10;;;5.55;;
51184;SDS011;37248;59.350;18.050;2023-02-08T07:15:45;36.97;;;6.17;;
51184;SDS011;37248;59.350;18.050;2023-02-08T07:18:10;27.37;;;4.90;;
51184;SDS011;37248;59.350;18.050;2023-02-08T07:20:35;30.50;;;6.10;;
51184;SDS011;37248;59.350;18.050;2023-02-08T07:23:01;39.53;;;7.00;;
51184;SDS011;37248;59.350;18.050;2023-02-08T07:25:26;35.40;;;6.30;;
51184;SDS011;37248;59.350;18.050;2023-02-08T07:27:51;46.53;;;7.57;;
51184;SDS011;37248;59.350;18.050;2023-02-08T07:30:16;90.43;;;9.90;;
51184;SDS011;37248;59.350;18.050;2023-02-08T07:32:42;87.33;;;10.20;;
51184;SDS011;37248;59.350;18.050;2023-02-08T07:35:07;71.50;;;9.10;;
51184;SDS011;37248;59.350;18.050;2023-02-08T07:37:32;58.73;;;8.73;;
51184;SDS011;37248;59.350;18.050;2023-02-08T07:39:58;59.37;;;8.40;;
51184;SDS011;37248;59.350;18.050;2023-02-08T07:42:23;47.33;;;7.53;;
51184;SDS011;37248;59.350;18.050;2023-02-08T07:44:48;50.33;;;7.47;;
51184;SDS011;37248;59.350;18.050;2023-02-08T07:47:14;44.43;;;7.10;;
51184;SDS011;37248;59.350;18.050;2023-02-08T07:49:41;36.80;;;7.30;;
51184;SDS011;37248;59.350;18.050;2023-02-08T07:52:06;52.78;;;8.23;;
51184;SDS011;37248;59.350;18.050;2023-02-08T07:54:31;40.33;;;7.80;;
51184;SDS011;37248;59.350;18.050;2023-02-08T07:56:57;36.17;;;6.67;;
51184;SDS011;37248;59.350;18.050;2023-02-08T07:59:22;33.80;;;7.10;;
51184;SDS011;37248;59.350;18.050;2023-02-08T08:01:47;30.33;;;7.00;;
51184;SDS011;37248;59.350;18.050;2023-02-08T08:04:13;38.27;;;7.13;;
51184;SDS011;37248;59.350;18.050;2023-02-08T08:06:38;37.00;;;5.93;;
51184;SDS011;37248;59.350;18.050;2023-02-08T08:09:03;28.00;;;5.60;;
51184;SDS011;37248;59.350;18.050;2023-02-08T08:11:29;27.48;;;5.90;;
51184;SDS011;37248;59.350;18.050;2023-02-08T08:13:55;27.48;;;5.57;;
51184;SDS011;37248;59.350;18.050;2023-02-08T08:16:20;25.93;;;5.93;;
51184;SDS011;37248;59.350;18.050;2023-02-08T08:18:46;20.97;;;5.17;;
51184;SDS011;37248;59.350;18.050;2023-02-08T08:21:11;23.83;;;4.83;;
51184;SDS011;37248;59.350;18.050;2023-02-08T08:23:37;23.03;;;5.20;;
51184;SDS011;37248;59.350;18.050;2023-02-08T08:26:06;23.87;;;5.00;;
51184;SDS011;37248;59.350;18.050;2023-02-08T08:28:32;21.27;;;4.97;;
51184;SDS011;37248;59.350;18.050;2023-02-08T08:30:57;18.57;;;5.07;;
51184;SDS011;37248;59.350;18.050;2023-02-08T08:33:23;24.40;;;5.53;;
51184;SDS011;37248;59.350;18.050;2023-02-08T08:35:48;16.23;;;4.20;;
51184;SDS011;37248;59.350;18.050;2023-02-08T08:38:13;18.07;;;4.83;;
51184;SDS011;37248;59.350;18.050;2023-02-08T08:40:38;18.10;;;4.43;;
51184;SDS011;37248;59.350;18.050;2023-02-08T08:43:04;14.30;;;3.83;;
51184;SDS011;37248;59.350;18.050;2023-02-08T08:45:29;18.77;;;4.40;;
51184;SDS011;37248;59.350;18.050;2023-02-08T08:47:54;21.88;;;4.00;;
51184;SDS011;37248;59.350;18.050;2023-02-08T08:50:19;16.80;;;3.93;;
51184;SDS011;37248;59.350;18.050;2023-02-08T08:52:45;14.43;;;3.87;;
51184;SDS011;37248;59.350;18.050;2023-02-08T08:55:10;15.63;;;4.97;;
51184;SDS011;37248;59.350;18.050;2023-02-08T08:57:35;12.53;;;4.33;;
51184;SDS011;37248;59.350;18.050;2023-02-08T09:00:01;12.10;;;4.03;;
51184;SDS011;37248;59.350;18.050;2023-02-08T09:02:26;14.83;;;3.67;;
51184;SDS011;37248;59.350;18.050;2023-02-08T09:04:51;14.00;;;4.13;;
51184;SDS011;37248;59.350;18.050;2023-02-08T09:07:17;15.03;;;4.20;;
51184;SDS011;37248;59.350;18.050;2023-02-08T09:09:42;13.83;;;3.97;;
51184;SDS011;37248;59.350;18.050;2023-02-08T09:12:11;15.88;;;4.22;;
51184;SDS011;37248;59.350;18.050;2023-02-08T09:14:37;13.13;;;4.10;;
51184;SDS011;37248;59.350;18.050;2023-02-08T09:17:02;14.73;;;3.83;;
51184;SDS011;37248;59.350;18.050;2023-02-08T09:19:28;23.83;;;4.45;;
51184;SDS011;37248;59.350;18.050;2023-02-08T09:21:54;8.57;;;3.72;;
51184;SDS011;37248;59.350;18.050;2023-02-08T09:24:19;17.03;;;4.10;;
51184;SDS011;37248;59.350;18.050;2023-02-08T09:26:44;13.90;;;3.77;;
51184;SDS011;37248;59.350;18.050;2023-02-08T09:29:10;19.23;;;4.43;;
51184;SDS011;37248;59.350;18.050;2023-02-08T09:31:35;17.00;;;4.03;;
51184;SDS011;37248;59.350;18.050;2023-02-08T09:34:04;10.70;;;3.83;;
51184;SDS011;37248;59.350;18.050;2023-02-08T09:36:34;16.33;;;3.50;;
51184;SDS011;37248;59.350;18.050;2023-02-08T09:39:00;12.82;;;3.78;;
51184;SDS011;37248;59.350;18.050;2023-02-08T09:44:16;16.98;;;3.53;;
51184;SDS011;37248;59.350;18.050;2023-02-08T09:46:47;13.30;;;3.45;;
51184;SDS011;37248;59.350;18.050;2023-02-08T09:49:15;14.90;;;3.60;;
51184;SDS011;37248;59.350;18.050;2023-02-08T09:51:44;10.98;;;3.80;;
51184;SDS011;37248;59.350;18.050;2023-02-08T09:54:19;13.85;;;3.22;;
51184;SDS011;37248;59.350;18.050;2023-02-08T09:56:45;13.57;;;3.85;;
51184;SDS011;37248;59.350;18.050;2023-02-08T09:59:15;10.40;;;3.03;;
51184;SDS011;37248;59.350;18.050;2023-02-08T10:01:41;12.07;;;3.38;;
51184;SDS011;37248;59.350;18.050;2023-02-08T10:04:21;9.63;;;3.30;;
51184;SDS011;37248;59.350;18.050;2023-02-08T10:06:47;12.63;;;3.33;;
51184;SDS011;37248;59.350;18.050;2023-02-08T10:09:13;13.80;;;3.63;;
51184;SDS011;37248;59.350;18.050;2023-02-08T10:11:51;15.50;;;4.03;;
51184;SDS011;37248;59.350;18.050;2023-02-08T10:32:05;12.60;;;3.70;;
51184;SDS011;37248;59.350;18.050;2023-02-08T10:37:33;12.27;;;3.33;;
51184;SDS011;37248;59.350;18.050;2023-02-08T10:42:47;10.35;;;3.50;;
51184;SDS011;37248;59.350;18.050;2023-02-08T10:47:59;10.98;;;3.08;;
51184;SDS011;37248;59.350;18.050;2023-02-08T10:52:58;9.43;;;3.75;;
51184;SDS011;37248;59.350;18.050;2023-02-08T10:55:23;13.27;;;3.50;;
51184;SDS011;37248;59.350;18.050;2023-02-08T10:57:49;12.47;;;3.63;;
51184;SDS011;37248;59.350;18.050;2023-02-08T11:00:18;8.98;;;2.80;;
51184;SDS011;37248;59.350;18.050;2023-02-08T11:02:44;8.63;;;3.00;;
51184;SDS011;37248;59.350;18.050;2023-02-08T11:07:36;9.37;;;3.03;;
51184;SDS011;37248;59.350;18.050;2023-02-08T11:12:40;11.05;;;3.60;;
51184;SDS011;37248;59.350;18.050;2023-02-08T11:15:17;8.03;;;2.87;;
51184;SDS011;37248;59.350;18.050;2023-02-08T11:17:45;7.13;;;2.60;;
51184;SDS011;37248;59.350;18.050;2023-02-08T11:20:18;7.57;;;2.40;;
51184;SDS011;37248;59.350;18.050;2023-02-08T11:22:44;7.72;;;2.58;;
51184;SDS011;37248;59.350;18.050;2023-02-08T11:25:12;7.00;;;2.60;;
51184;SDS011;37248;59.350;18.050;2023-02-08T11:27:53;6.53;;;2.35;;
51184;SDS011;37248;59.350;18.050;2023-02-08T11:30:20;9.10;;;2.67;;
51184;SDS011;37248;59.350;18.050;2023-02-08T11:32:48;7.60;;;2.58;;
51184;SDS011;37248;59.350;18.050;2023-02-08T11:35:27;4.80;;;2.00;;
51184;SDS011;37248;59.350;18.050;2023-02-08T11:37:57;7.38;;;1.92;;
51184;SDS011;37248;59.350;18.050;2023-02-08T11:40:24;5.65;;;2.33;;
51184;SDS011;37248;59.350;18.050;2023-02-08T11:42:50;5.80;;;2.20;;
51184;SDS011;37248;59.350;18.050;2023-02-08T11:45:20;5.30;;;2.10;;
51184;SDS011;37248;59.350;18.050;2023-02-08T11:47:46;6.97;;;2.38;;
51184;SDS011;37248;59.350;18.050;2023-02-08T11:50:20;6.25;;;1.88;;
51184;SDS011;37248;59.350;18.050;2023-02-08T11:52:55;7.60;;;2.08;;
51184;SDS011;37248;59.350;18.050;2023-02-08T11:55:23;6.28;;;2.17;;
51184;SDS011;37248;59.350;18.050;2023-02-08T12:00:20;3.75;;;1.77;;
51184;SDS011;37248;59.350;18.050;2023-02-08T12:02:46;4.38;;;1.77;;
51184;SDS011;37248;59.350;18.050;2023-02-08T12:05:12;5.93;;;1.80;;
51184;SDS011;37248;59.350;18.050;2023-02-08T12:20:16;5.78;;;1.80;;
51184;SDS011;37248;59.350;18.050;2023-02-08T12:23:39;3.93;;;1.53;;
51184;SDS011;37248;59.350;18.050;2023-02-08T12:25:50;4.13;;;1.60;;
51184;SDS011;37248;59.350;18.050;2023-02-08T12:28:24;4.97;;;1.80;;
51184;SDS011;37248;59.350;18.050;2023-02-08T12:30:57;4.68;;;1.80;;
51184;SDS011;37248;59.350;18.050;2023-02-08T12:51:23;3.20;;;1.47;;
51184;SDS011;37248;59.350;18.050;2023-02-08T12:53:55;2.25;;;1.20;;
51184;SDS011;37248;59.350;18.050;2023-02-08T12:56:22;4.30;;;1.40;;
51184;SDS011;37248;59.350;18.050;2023-02-08T12:58:57;4.50;;;1.48;;
51184;SDS011;37248;59.350;18.050;2023-02-08T13:01:45;2.78;;;1.25;;
51184;SDS011;37248;59.350;18.050;2023-02-08T13:04:12;4.47;;;1.50;;
51184;SDS011;37248;59.350;18.050;2023-02-08T13:06:39;3.33;;;1.30;;
51184;SDS011;37248;59.350;18.050;2023-02-08T13:11:50;4.20;;;1.40;;
51184;SDS011;37248;59.350;18.050;2023-02-08T13:14:22;4.03;;;1.48;;
51184;SDS011;37248;59.350;18.050;2023-02-08T13:16:51;4.87;;;1.47;;
51184;SDS011;37248;59.350;18.050;2023-02-08T13:19:22;3.60;;;1.38;;
51184;SDS011;37248;59.350;18.050;2023-02-08T13:21:48;2.17;;;1.10;;
51184;SDS011;37248;59.350;18.050;2023-02-08T13:24:25;5.20;;;1.20;;
51184;SDS011;37248;59.350;18.050;2023-02-08T13:26:51;3.10;;;1.13;;
51184;SDS011;37248;59.350;18.050;2023-02-08T13:29:17;2.93;;;1.30;;
51184;SDS011;37248;59.350;18.050;2023-02-08T13:31:53;3.40;;;1.53;;
51184;SDS011;37248;59.350;18.050;2023-02-08T13:36:50;3.47;;;1.50;;
51184;SDS011;37248;59.350;18.050;2023-02-08T13:39:49;2.80;;;1.15;;
51184;SDS011;37248;59.350;18.050;2023-02-08T13:42:17;3.50;;;1.40;;
51184;SDS011;37248;59.350;18.050;2023-02-08T13:44:43;2.45;;;1.05;;
51184;SDS011;37248;59.350;18.050;2023-02-08T13:47:32;4.32;;;1.35;;
51184;SDS011;37248;59.350;18.050;2023-02-08T13:50:02;3.45;;;1.48;;
51184;SDS011;37248;59.350;18.050;2023-02-08T14:00:25;2.42;;;1.25;;
51184;SDS011;37248;59.350;18.050;2023-02-08T14:07:56;3.20;;;1.17;;
51184;SDS011;37248;59.350;18.050;2023-02-08T14:10:31;6.10;;;1.67;;
51184;SDS011;37248;59.350;18.050;2023-02-08T14:15:37;14.48;;;1.98;;
51184;SDS011;37248;59.350;18.050;2023-02-08T14:18:03;9.27;;;1.52;;
51184;SDS011;37248;59.350;18.050;2023-02-08T14:20:31;13.65;;;1.67;;
51184;SDS011;37248;59.350;18.050;2023-02-08T14:22:59;9.27;;;2.00;;
51184;SDS011;37248;59.350;18.050;2023-02-08T14:25:26;11.52;;;2.33;;
51184;SDS011;37248;59.350;18.050;2023-02-08T14:27:56;11.88;;;2.00;;
51184;SDS011;37248;59.350;18.050;2023-02-08T14:30:23;13.52;;;2.10;;
51184;SDS011;37248;59.350;18.050;2023-02-08T14:32:50;13.20;;;2.22;;
51184;SDS011;37248;59.350;18.050;2023-02-08T14:35:21;12.60;;;1.80;;
51184;SDS011;37248;59.350;18.050;2023-02-08T14:37:47;9.68;;;1.80;;
51184;SDS011;37248;59.350;18.050;2023-02-08T14:42:55;8.73;;;2.33;;
51184;SDS011;37248;59.350;18.050;2023-02-08T14:47:53;7.40;;;1.88;;
51184;SDS011;37248;59.350;18.050;2023-02-08T14:50:21;12.48;;;1.67;;
51184;SDS011;37248;59.350;18.050;2023-02-08T14:52:51;4.50;;;1.95;;
51184;SDS011;37248;59.350;18.050;2023-02-08T14:55:20;6.38;;;1.52;;
51184;SDS011;37248;59.350;18.050;2023-02-08T14:57:50;6.18;;;1.70;;
51184;SDS011;37248;59.350;18.050;2023-02-08T15:00:18;6.22;;;2.00;;
51184;SDS011;37248;59.350;18.050;2023-02-08T15:02:44;5.73;;;1.80;;
51184;SDS011;37248;59.350;18.050;2023-02-08T15:05:19;5.10;;;1.73;;
51184;SDS011;37248;59.350;18.050;2023-02-08T15:10:11;5.83;;;1.87;;
51184;SDS011;37248;59.350;18.050;2023-02-08T15:12:37;6.53;;;1.58;;
51184;SDS011;37248;59.350;18.050;2023-02-08T15:15:03;5.20;;;1.52;;
51184;SDS011;37248;59.350;18.050;2023-02-08T15:17:33;4.15;;;1.48;;
51184;SDS011;37248;59.350;18.050;2023-02-08T15:20:00;3.50;;;1.40;;
51184;SDS011;37248;59.350;18.050;2023-02-08T15:22:31;3.63;;;1.50;;
51184;SDS011;37248;59.350;18.050;2023-02-08T15:24:59;4.60;;;1.40;;
51184;SDS011;37248;59.350;18.050;2023-02-08T15:27:32;4.63;;;1.48;;
51184;SDS011;37248;59.350;18.050;2023-02-08T15:29:57;3.10;;;1.90;;
51184;SDS011;37248;59.350;18.050;2023-02-08T15:32:24;5.03;;;1.65;;
51184;SDS011;37248;59.350;18.050;2023-02-08T15:34:59;5.28;;;1.42;;
51184;SDS011;37248;59.350;18.050;2023-02-08T15:37:25;5.17;;;1.40;;
51184;SDS011;37248;59.350;18.050;2023-02-08T15:39:53;7.97;;;2.00;;
51184;SDS011;37248;59.350;18.050;2023-02-08T15:42:23;3.65;;;1.42;;
51184;SDS011;37248;59.350;18.050;2023-02-08T15:44:49;4.88;;;1.63;;
51184;SDS011;37248;59.350;18.050;2023-02-08T15:47:27;3.92;;;1.35;;
51184;SDS011;37248;59.350;18.050;2023-02-08T15:49:53;5.38;;;1.30;;
51184;SDS011;37248;59.350;18.050;2023-02-08T15:52:21;3.17;;;1.40;;
51184;SDS011;37248;59.350;18.050;2023-02-08T15:54:47;5.57;;;1.27;;
51184;SDS011;37248;59.350;18.050;2023-02-08T15:59:50;2.22;;;1.15;;
51184;SDS011;37248;59.350;18.050;2023-02-08T16:02:28;3.60;;;1.07;;
51184;SDS011;37248;59.350;18.050;2023-02-08T16:04:55;2.42;;;1.17;;
51184;SDS011;37248;59.350;18.050;2023-02-08T16:07:27;5.13;;;1.30;;
51184;SDS011;37248;59.350;18.050;2023-02-08T16:09:54;3.78;;;1.23;;
51184;SDS011;37248;59.350;18.050;2023-02-08T16:12:23;4.60;;;1.30;;
51184;SDS011;37248;59.350;18.050;2023-02-08T16:14:49;3.13;;;1.40;;
51184;SDS011;37248;59.350;18.050;2023-02-08T16:19:58;3.27;;;1.37;;
51184;SDS011;37248;59.350;18.050;2023-02-08T16:22:30;4.43;;;1.20;;
51184;SDS011;37248;59.350;18.050;2023-02-08T16:27:40;3.05;;;1.27;;
51184;SDS011;37248;59.350;18.050;2023-02-08T16:30:17;3.17;;;1.40;;
51184;SDS011;37248;59.350;18.050;2023-02-08T16:32:43;6.13;;;1.37;;
51184;SDS011;37248;59.350;18.050;2023-02-08T16:35:22;9.43;;;1.50;;
51184;SDS011;37248;59.350;18.050;2023-02-08T16:37:58;14.55;;;1.92;;
51184;SDS011;37248;59.350;18.050;2023-02-08T16:40:59;7.90;;;1.40;;
51184;SDS011;37248;59.350;18.050;2023-02-08T16:43:17;9.60;;;1.52;;
51184;SDS011;37248;59.350;18.050;2023-02-08T16:45:43;7.53;;;1.65;;
51184;SDS011;37248;59.350;18.050;2023-02-08T16:49:08;4.50;;;1.70;;
51184;SDS011;37248;59.350;18.050;2023-02-08T16:51:03;5.53;;;1.33;;
51184;SDS011;37248;59.350;18.050;2023-02-08T16:53:29;10.23;;;1.50;;
51184;SDS011;37248;59.350;18.050;2023-02-08T16:55:55;9.40;;;1.53;;
51184;SDS011;37248;59.350;18.050;2023-02-08T16:58:21;17.38;;;1.92;;
51184;SDS011;37248;59.350;18.050;2023-02-08T17:00:46;11.47;;;1.90;;
51184;SDS011;37248;59.350;18.050;2023-02-08T17:03:12;6.47;;;1.48;;